Palmer Municipal Airport
PAAQ : now visible

Airfield :











YOU CAN JOIN US ON...

 
LOGIN :

Register | Disclaimer

   EN    FR    IT 

 









Legend :    VFR   Marginal VFR   IFR   Intensive IFR   Very Intensive IFR
Visi :
Ceiling :
>= 8 km
>= 3000ft
5 to 8 km
1000 to 3000 ft
1500m to 5 km
500 to 1000 ft
800 to 1500m
200 to 500 ft
< 800m
< 200 ft
Symbols :   Thunderstorms  Fog  Heavy snow  Heavy precipitations  Wind > 20 kt






- Airport Elevation : 242 ft
- IATA code : PAQ


PAAQ - Palmer Municipal

CURRENT METAR :
  • 301633Z 35006KT 10SM BKN011 M10/M12 A2979 RMK AO2 T11001122

EXPIRED METARs :
  • 301553Z 35006KT 10SM CLR M11/M13 A2979 RMK AO2 SLP094 T11061128
  • 301453Z AUTO 35005KT 10SM CLR M11/M12 A2979 RMK AO2 SLP092 60000 T11061122 53002 TSNO
  • 301353Z AUTO 34006KT 10SM CLR M10/M12 A2978 RMK AO2 SNE01 SLP090 P0000 T11001117 TSNO

TAF PAAQ
Valid from the 30 at 12:00 until the 31 at 12:00 UTC


301136Z 3012/3112 35005KT 6SM -SN BKN015 OVC035
TEMPO 3012/3016 SCT015
FM301800 01012KT P6SM SKC
PAZA FIR / North America



MET'MAP, your aeronautical weather chart ! - Copyright ORBIFLY December 2007 - Disclaimer

ORBIFLY MET'MAP TEAM :

Programming & Development : Alexandra Zaïnal
Concept & original design : Baudouin d'Aumeries
Assistance for programming : Marc-Olivier Méhu
Technical & hardware support : Manuel Goepfert

Contact : metmap@orbifly.com




SOURCES & CREDITS :

   NOAA       Earth
Advisory